Terminal Aerodrome Forecast
Issued by NWS

Home | Current Version | Previous Version | Text Only | Print | Product List | Glossary Off
Versions: 1 2 3 4 5 6 7 8 9 10 11 12 13 14 15 16 17 18 19 20 21

000
FTUS42 KMHX 220538
TAFOAJ
TAF
KOAJ 220538Z 2206/2306 VRB03KT 1/2SM FG VCSH OVC003
     FM221200 06005KT 6SM BR VCSH OVC007
     FM221400 07005KT P6SM OVC011
     FM221600 08005KT P6SM SHRA BKN022
     FM222000 VRB04KT P6SM SHRA BKN035
     FM230000 VRB04KT P6SM OVC030
     FM230300 VRB03KT P6SM OVC007
      AMD LTD TO CLD VIS AND WIND=

USA.gov is the U.S. government's official web portal to all federal, state and local government web resources and services.